sensor_id;sensor_type;location;lat;lon;timestamp;temperature;humidity
49793;DHT22;35690;37.536;-122.304;2022-07-17T00:02:20;34.50;36.10
49793;DHT22;35690;37.536;-122.304;2022-07-17T00:04:46;34.50;36.10
49793;DHT22;35690;37.536;-122.304;2022-07-17T00:07:13;34.40;36.00
49793;DHT22;35690;37.536;-122.304;2022-07-17T00:09:39;34.40;36.00
49793;DHT22;35690;37.536;-122.304;2022-07-17T00:12:07;34.30;35.90
49793;DHT22;35690;37.536;-122.304;2022-07-17T00:14:33;34.20;35.80
49793;DHT22;35690;37.536;-122.304;2022-07-17T00:17:00;34.20;35.90
49793;DHT22;35690;37.536;-122.304;2022-07-17T00:19:27;34.20;36.00
49793;DHT22;35690;37.536;-122.304;2022-07-17T00:21:53;34.20;35.90
49793;DHT22;35690;37.536;-122.304;2022-07-17T00:24:20;34.20;35.90
49793;DHT22;35690;37.536;-122.304;2022-07-17T00:26:49;34.20;35.90
49793;DHT22;35690;37.536;-122.304;2022-07-17T00:29:16;34.30;35.80
49793;DHT22;35690;37.536;-122.304;2022-07-17T00:31:43;34.20;35.60
49793;DHT22;35690;37.536;-122.304;2022-07-17T00:34:10;34.20;35.60
49793;DHT22;35690;37.536;-122.304;2022-07-17T00:36:36;34.20;35.70
49793;DHT22;35690;37.536;-122.304;2022-07-17T00:39:03;34.10;35.50
49793;DHT22;35690;37.536;-122.304;2022-07-17T00:41:30;34.10;36.10
49793;DHT22;35690;37.536;-122.304;2022-07-17T00:44:08;34.10;35.70
49793;DHT22;35690;37.536;-122.304;2022-07-17T00:46:35;34.00;35.70
49793;DHT22;35690;37.536;-122.304;2022-07-17T00:49:03;33.90;35.60
49793;DHT22;35690;37.536;-122.304;2022-07-17T00:51:30;33.70;35.50
49793;DHT22;35690;37.536;-122.304;2022-07-17T00:53:58;33.60;35.70
49793;DHT22;35690;37.536;-122.304;2022-07-17T00:56:27;33.40;35.70
49793;DHT22;35690;37.536;-122.304;2022-07-17T00:58:55;33.40;35.80
49793;DHT22;35690;37.536;-122.304;2022-07-17T01:01:22;33.30;35.80
49793;DHT22;35690;37.536;-122.304;2022-07-17T01:03:49;33.30;35.90
49793;DHT22;35690;37.536;-122.304;2022-07-17T01:06:15;33.20;35.80
49793;DHT22;35690;37.536;-122.304;2022-07-17T01:08:41;33.10;35.80
49793;DHT22;35690;37.536;-122.304;2022-07-17T01:11:08;33.10;35.80
49793;DHT22;35690;37.536;-122.304;2022-07-17T01:13:35;33.00;35.80
49793;DHT22;35690;37.536;-122.304;2022-07-17T01:16:02;32.90;35.80
49793;DHT22;35690;37.536;-122.304;2022-07-17T01:18:29;32.80;35.90
49793;DHT22;35690;37.536;-122.304;2022-07-17T01:20:55;32.60;35.90
49793;DHT22;35690;37.536;-122.304;2022-07-17T01:23:22;32.50;36.00
49793;DHT22;35690;37.536;-122.304;2022-07-17T01:25:49;32.40;36.20
49793;DHT22;35690;37.536;-122.304;2022-07-17T01:28:15;32.50;36.20
49793;DHT22;35690;37.536;-122.304;2022-07-17T01:30:49;32.50;36.10
49793;DHT22;35690;37.536;-122.304;2022-07-17T01:33:17;32.50;36.10
49793;DHT22;35690;37.536;-122.304;2022-07-17T01:35:43;32.40;36.10
49793;DHT22;35690;37.536;-122.304;2022-07-17T01:38:10;32.40;36.20
49793;DHT22;35690;37.536;-122.304;2022-07-17T01:40:37;32.40;36.20
49793;DHT22;35690;37.536;-122.304;2022-07-17T01:43:03;32.30;36.20
49793;DHT22;35690;37.536;-122.304;2022-07-17T01:45:31;32.30;36.30
49793;DHT22;35690;37.536;-122.304;2022-07-17T01:47:58;32.20;36.40
49793;DHT22;35690;37.536;-122.304;2022-07-17T01:50:24;32.20;36.60
49793;DHT22;35690;37.536;-122.304;2022-07-17T01:52:51;32.10;36.60
49793;DHT22;35690;37.536;-122.304;2022-07-17T01:55:17;31.90;36.80
49793;DHT22;35690;37.536;-122.304;2022-07-17T01:57:44;31.80;36.80
49793;DHT22;35690;37.536;-122.304;2022-07-17T02:00:14;31.60;36.80
49793;DHT22;35690;37.536;-122.304;2022-07-17T02:02:43;31.50;37.00
49793;DHT22;35690;37.536;-122.304;2022-07-17T02:05:09;31.50;37.00
49793;DHT22;35690;37.536;-122.304;2022-07-17T02:07:36;31.40;37.10
49793;DHT22;35690;37.536;-122.304;2022-07-17T02:10:07;31.50;37.10
49793;DHT22;35690;37.536;-122.304;2022-07-17T02:12:34;31.40;37.00
49793;DHT22;35690;37.536;-122.304;2022-07-17T02:15:02;31.40;37.00
49793;DHT22;35690;37.536;-122.304;2022-07-17T02:17:28;31.30;37.00
49793;DHT22;35690;37.536;-122.304;2022-07-17T02:19:55;31.30;37.80
49793;DHT22;35690;37.536;-122.304;2022-07-17T02:22:22;31.30;37.30
49793;DHT22;35690;37.536;-122.304;2022-07-17T02:24:49;31.20;37.20
49793;DHT22;35690;37.536;-122.304;2022-07-17T02:27:15;31.20;37.30
49793;DHT22;35690;37.536;-122.304;2022-07-17T02:29:41;31.20;37.40
49793;DHT22;35690;37.536;-122.304;2022-07-17T02:32:08;31.10;37.40
49793;DHT22;35690;37.536;-122.304;2022-07-17T02:34:34;31.00;37.40
49793;DHT22;35690;37.536;-122.304;2022-07-17T02:37:01;30.90;37.50
49793;DHT22;35690;37.536;-122.304;2022-07-17T02:39:27;30.90;37.60
49793;DHT22;35690;37.536;-122.304;2022-07-17T02:41:54;30.80;37.70
49793;DHT22;35690;37.536;-122.304;2022-07-17T02:44:20;30.60;37.70
49793;DHT22;35690;37.536;-122.304;2022-07-17T02:46:47;30.50;37.90
49793;DHT22;35690;37.536;-122.304;2022-07-17T02:49:13;30.40;38.10
49793;DHT22;35690;37.536;-122.304;2022-07-17T02:51:40;30.40;38.10
49793;DHT22;35690;37.536;-122.304;2022-07-17T02:54:06;30.30;38.10
49793;DHT22;35690;37.536;-122.304;2022-07-17T02:56:33;30.20;38.00
49793;DHT22;35690;37.536;-122.304;2022-07-17T02:58:59;30.20;38.10
49793;DHT22;35690;37.536;-122.304;2022-07-17T03:01:26;30.20;38.20
49793;DHT22;35690;37.536;-122.304;2022-07-17T03:03:53;30.10;38.20
49793;DHT22;35690;37.536;-122.304;2022-07-17T03:06:20;30.10;38.10
49793;DHT22;35690;37.536;-122.304;2022-07-17T03:08:46;30.00;38.00
49793;DHT22;35690;37.536;-122.304;2022-07-17T03:11:12;30.00;38.20
49793;DHT22;35690;37.536;-122.304;2022-07-17T03:13:39;29.80;38.10
49793;DHT22;35690;37.536;-122.304;2022-07-17T03:16:05;29.70;38.10
49793;DHT22;35690;37.536;-122.304;2022-07-17T03:18:34;29.60;38.20
49793;DHT22;35690;37.536;-122.304;2022-07-17T03:21:00;29.50;38.40
49793;DHT22;35690;37.536;-122.304;2022-07-17T03:23:27;29.40;38.50
49793;DHT22;35690;37.536;-122.304;2022-07-17T03:25:53;29.40;38.50
49793;DHT22;35690;37.536;-122.304;2022-07-17T03:28:20;29.30;38.50
49793;DHT22;35690;37.536;-122.304;2022-07-17T03:30:46;29.10;38.80
49793;DHT22;35690;37.536;-122.304;2022-07-17T03:33:13;29.00;38.60
49793;DHT22;35690;37.536;-122.304;2022-07-17T03:35:39;29.00;38.30
49793;DHT22;35690;37.536;-122.304;2022-07-17T03:38:07;28.80;38.50
49793;DHT22;35690;37.536;-122.304;2022-07-17T03:40:33;28.80;38.70
49793;DHT22;35690;37.536;-122.304;2022-07-17T03:43:00;28.80;38.50
49793;DHT22;35690;37.536;-122.304;2022-07-17T03:45:26;28.70;38.70
49793;DHT22;35690;37.536;-122.304;2022-07-17T03:47:53;28.60;38.70
49793;DHT22;35690;37.536;-122.304;2022-07-17T03:50:19;28.40;38.50
49793;DHT22;35690;37.536;-122.304;2022-07-17T03:52:45;28.40;38.50
49793;DHT22;35690;37.536;-122.304;2022-07-17T03:55:12;28.30;38.60
49793;DHT22;35690;37.536;-122.304;2022-07-17T03:57:38;28.30;38.80
49793;DHT22;35690;37.536;-122.304;2022-07-17T04:00:05;28.20;38.80
49793;DHT22;35690;37.536;-122.304;2022-07-17T04:02:33;28.00;39.00
49793;DHT22;35690;37.536;-122.304;2022-07-17T04:04:59;28.00;39.00
49793;DHT22;35690;37.536;-122.304;2022-07-17T04:07:26;27.90;39.30
49793;DHT22;35690;37.536;-122.304;2022-07-17T04:09:58;27.80;39.40
49793;DHT22;35690;37.536;-122.304;2022-07-17T04:12:25;27.70;39.40
49793;DHT22;35690;37.536;-122.304;2022-07-17T04:14:54;27.70;39.40
49793;DHT22;35690;37.536;-122.304;2022-07-17T04:17:21;27.60;39.50
49793;DHT22;35690;37.536;-122.304;2022-07-17T04:19:47;27.50;39.50
49793;DHT22;35690;37.536;-122.304;2022-07-17T04:22:14;27.50;39.50
49793;DHT22;35690;37.536;-122.304;2022-07-17T04:24:42;27.40;39.50
49793;DHT22;35690;37.536;-122.304;2022-07-17T04:27:09;27.30;39.60
49793;DHT22;35690;37.536;-122.304;2022-07-17T04:29:36;27.20;39.90
49793;DHT22;35690;37.536;-122.304;2022-07-17T04:32:03;27.10;39.90
49793;DHT22;35690;37.536;-122.304;2022-07-17T04:34:30;27.10;40.00
49793;DHT22;35690;37.536;-122.304;2022-07-17T04:36:58;27.10;39.90
49793;DHT22;35690;37.536;-122.304;2022-07-17T04:39:27;27.00;40.00
49793;DHT22;35690;37.536;-122.304;2022-07-17T04:41:53;26.90;40.30
49793;DHT22;35690;37.536;-122.304;2022-07-17T04:44:20;26.90;40.20
49793;DHT22;35690;37.536;-122.304;2022-07-17T04:46:47;26.80;40.30
49793;DHT22;35690;37.536;-122.304;2022-07-17T04:49:14;26.80;40.20
49793;DHT22;35690;37.536;-122.304;2022-07-17T04:51:40;26.60;40.50
49793;DHT22;35690;37.536;-122.304;2022-07-17T04:54:07;26.60;40.50
49793;DHT22;35690;37.536;-122.304;2022-07-17T04:56:35;26.50;40.60
49793;DHT22;35690;37.536;-122.304;2022-07-17T04:59:01;26.40;40.70
49793;DHT22;35690;37.536;-122.304;2022-07-17T05:01:28;26.40;40.90
49793;DHT22;35690;37.536;-122.304;2022-07-17T05:03:55;26.30;40.90
49793;DHT22;35690;37.536;-122.304;2022-07-17T05:06:21;26.30;40.90
49793;DHT22;35690;37.536;-122.304;2022-07-17T05:08:48;26.20;41.00
49793;DHT22;35690;37.536;-122.304;2022-07-17T05:11:15;26.10;41.00
49793;DHT22;35690;37.536;-122.304;2022-07-17T05:13:41;26.10;41.20
49793;DHT22;35690;37.536;-122.304;2022-07-17T05:16:08;26.00;41.20
49793;DHT22;35690;37.536;-122.304;2022-07-17T05:18:34;25.90;42.10
49793;DHT22;35690;37.536;-122.304;2022-07-17T05:21:01;25.90;41.40
49793;DHT22;35690;37.536;-122.304;2022-07-17T05:23:27;25.70;41.70
49793;DHT22;35690;37.536;-122.304;2022-07-17T05:25:54;25.80;41.60
49793;DHT22;35690;37.536;-122.304;2022-07-17T05:28:21;25.70;41.60
49793;DHT22;35690;37.536;-122.304;2022-07-17T05:30:47;25.70;41.80
49793;DHT22;35690;37.536;-122.304;2022-07-17T05:33:14;25.60;42.00
49793;DHT22;35690;37.536;-122.304;2022-07-17T05:35:41;25.60;41.80
49793;DHT22;35690;37.536;-122.304;2022-07-17T05:38:07;25.60;41.90
49793;DHT22;35690;37.536;-122.304;2022-07-17T05:40:35;25.60;41.90
49793;DHT22;35690;37.536;-122.304;2022-07-17T05:43:02;25.50;42.10
49793;DHT22;35690;37.536;-122.304;2022-07-17T05:45:28;25.40;42.10
49793;DHT22;35690;37.536;-122.304;2022-07-17T05:47:55;25.40;42.10
49793;DHT22;35690;37.536;-122.304;2022-07-17T05:50:21;25.40;42.10
49793;DHT22;35690;37.536;-122.304;2022-07-17T05:52:47;25.30;42.20
49793;DHT22;35690;37.536;-122.304;2022-07-17T05:55:14;25.20;42.40
49793;DHT22;35690;37.536;-122.304;2022-07-17T05:57:41;25.20;42.50
49793;DHT22;35690;37.536;-122.304;2022-07-17T06:00:08;25.20;42.40
49793;DHT22;35690;37.536;-122.304;2022-07-17T06:02:35;25.10;42.60
49793;DHT22;35690;37.536;-122.304;2022-07-17T06:05:01;25.10;42.50
49793;DHT22;35690;37.536;-122.304;2022-07-17T06:07:28;25.10;42.50
49793;DHT22;35690;37.536;-122.304;2022-07-17T06:09:54;25.00;42.50
49793;DHT22;35690;37.536;-122.304;2022-07-17T06:12:21;25.00;42.80
49793;DHT22;35690;37.536;-122.304;2022-07-17T06:14:47;25.00;42.70
49793;DHT22;35690;37.536;-122.304;2022-07-17T06:17:14;24.90;42.90
49793;DHT22;35690;37.536;-122.304;2022-07-17T06:19:40;25.00;42.90
49793;DHT22;35690;37.536;-122.304;2022-07-17T06:22:07;24.90;43.00
49793;DHT22;35690;37.536;-122.304;2022-07-17T06:24:33;24.70;43.10
49793;DHT22;35690;37.536;-122.304;2022-07-17T06:27:00;24.60;43.20
49793;DHT22;35690;37.536;-122.304;2022-07-17T06:29:26;24.70;43.50
49793;DHT22;35690;37.536;-122.304;2022-07-17T06:31:53;24.60;43.50
49793;DHT22;35690;37.536;-122.304;2022-07-17T06:34:19;24.60;43.50
49793;DHT22;35690;37.536;-122.304;2022-07-17T06:36:45;24.60;43.50
49793;DHT22;35690;37.536;-122.304;2022-07-17T06:39:12;24.50;43.60
49793;DHT22;35690;37.536;-122.304;2022-07-17T06:41:39;24.50;43.60
49793;DHT22;35690;37.536;-122.304;2022-07-17T06:44:06;24.50;43.70
49793;DHT22;35690;37.536;-122.304;2022-07-17T06:46:32;24.40;43.90
49793;DHT22;35690;37.536;-122.304;2022-07-17T06:48:58;24.40;44.00
49793;DHT22;35690;37.536;-122.304;2022-07-17T06:51:25;24.30;44.10
49793;DHT22;35690;37.536;-122.304;2022-07-17T06:53:52;24.30;44.10
49793;DHT22;35690;37.536;-122.304;2022-07-17T06:56:18;24.20;44.10
49793;DHT22;35690;37.536;-122.304;2022-07-17T06:58:44;24.20;44.40
49793;DHT22;35690;37.536;-122.304;2022-07-17T07:01:11;24.20;44.20
49793;DHT22;35690;37.536;-122.304;2022-07-17T07:03:38;24.10;44.30
49793;DHT22;35690;37.536;-122.304;2022-07-17T07:06:04;24.10;44.30
49793;DHT22;35690;37.536;-122.304;2022-07-17T07:08:32;24.10;44.30
49793;DHT22;35690;37.536;-122.304;2022-07-17T07:10:58;24.00;44.40
49793;DHT22;35690;37.536;-122.304;2022-07-17T07:13:25;23.90;44.60
49793;DHT22;35690;37.536;-122.304;2022-07-17T07:15:51;24.00;44.50
49793;DHT22;35690;37.536;-122.304;2022-07-17T07:18:18;23.90;44.60
49793;DHT22;35690;37.536;-122.304;2022-07-17T07:20:44;23.90;44.60
49793;DHT22;35690;37.536;-122.304;2022-07-17T07:23:11;23.80;44.80
49793;DHT22;35690;37.536;-122.304;2022-07-17T07:25:37;23.80;44.80
49793;DHT22;35690;37.536;-122.304;2022-07-17T07:28:04;23.70;45.10
49793;DHT22;35690;37.536;-122.304;2022-07-17T07:30:31;23.80;45.00
49793;DHT22;35690;37.536;-122.304;2022-07-17T07:32:57;23.80;45.00
49793;DHT22;35690;37.536;-122.304;2022-07-17T07:35:24;23.70;45.10
49793;DHT22;35690;37.536;-122.304;2022-07-17T07:37:50;23.70;45.20
49793;DHT22;35690;37.536;-122.304;2022-07-17T07:40:17;23.80;45.00
49793;DHT22;35690;37.536;-122.304;2022-07-17T07:42:44;23.70;45.00
49793;DHT22;35690;37.536;-122.304;2022-07-17T07:45:10;23.60;45.30
49793;DHT22;35690;37.536;-122.304;2022-07-17T07:47:41;23.60;45.20
49793;DHT22;35690;37.536;-122.304;2022-07-17T07:50:09;23.60;45.30
49793;DHT22;35690;37.536;-122.304;2022-07-17T07:52:36;23.50;45.40
49793;DHT22;35690;37.536;-122.304;2022-07-17T07:55:22;23.50;45.40
49793;DHT22;35690;37.536;-122.304;2022-07-17T07:57:49;23.50;45.30
49793;DHT22;35690;37.536;-122.304;2022-07-17T08:00:16;23.60;45.30
49793;DHT22;35690;37.536;-122.304;2022-07-17T08:02:43;23.50;45.50
49793;DHT22;35690;37.536;-122.304;2022-07-17T08:05:09;23.60;45.40
49793;DHT22;35690;37.536;-122.304;2022-07-17T08:07:36;23.50;45.50
49793;DHT22;35690;37.536;-122.304;2022-07-17T08:10:04;23.50;45.40
49793;DHT22;35690;37.536;-122.304;2022-07-17T08:12:30;23.50;45.60
49793;DHT22;35690;37.536;-122.304;2022-07-17T08:14:57;23.50;45.40
49793;DHT22;35690;37.536;-122.304;2022-07-17T08:17:24;23.50;45.30
49793;DHT22;35690;37.536;-122.304;2022-07-17T08:19:50;23.50;45.30
49793;DHT22;35690;37.536;-122.304;2022-07-17T08:22:17;23.40;46.20
49793;DHT22;35690;37.536;-122.304;2022-07-17T08:24:43;23.40;45.90
49793;DHT22;35690;37.536;-122.304;2022-07-17T08:27:10;23.50;45.60
49793;DHT22;35690;37.536;-122.304;2022-07-17T08:29:36;23.50;45.60
49793;DHT22;35690;37.536;-122.304;2022-07-17T08:32:03;23.50;45.50
49793;DHT22;35690;37.536;-122.304;2022-07-17T08:34:29;23.30;45.70
49793;DHT22;35690;37.536;-122.304;2022-07-17T08:36:56;23.40;45.60
49793;DHT22;35690;37.536;-122.304;2022-07-17T08:39:22;23.40;45.60
49793;DHT22;35690;37.536;-122.304;2022-07-17T08:41:49;23.40;45.80
49793;DHT22;35690;37.536;-122.304;2022-07-17T08:44:16;23.30;45.70
49793;DHT22;35690;37.536;-122.304;2022-07-17T08:46:42;23.40;45.80
49793;DHT22;35690;37.536;-122.304;2022-07-17T08:49:10;23.40;45.60
49793;DHT22;35690;37.536;-122.304;2022-07-17T08:51:37;23.20;46.20
49793;DHT22;35690;37.536;-122.304;2022-07-17T08:54:04;23.30;46.00
49793;DHT22;35690;37.536;-122.304;2022-07-17T08:56:31;23.30;46.00
49793;DHT22;35690;37.536;-122.304;2022-07-17T08:58:57;23.30;46.00
49793;DHT22;35690;37.536;-122.304;2022-07-17T09:01:24;23.30;45.80
49793;DHT22;35690;37.536;-122.304;2022-07-17T09:03:58;23.20;45.90
49793;DHT22;35690;37.536;-122.304;2022-07-17T09:06:27;23.20;46.00
49793;DHT22;35690;37.536;-122.304;2022-07-17T09:09:08;23.20;46.00
49793;DHT22;35690;37.536;-122.304;2022-07-17T09:11:47;23.20;46.20
49793;DHT22;35690;37.536;-122.304;2022-07-17T09:14:15;23.20;46.20
49793;DHT22;35690;37.536;-122.304;2022-07-17T09:16:56;23.10;46.00
49793;DHT22;35690;37.536;-122.304;2022-07-17T09:19:30;23.10;46.30
49793;DHT22;35690;37.536;-122.304;2022-07-17T09:22:22;23.10;46.40
49793;DHT22;35690;37.536;-122.304;2022-07-17T09:27:37;22.90;46.60
49793;DHT22;35690;37.536;-122.304;2022-07-17T09:30:06;23.10;46.20
49793;DHT22;35690;37.536;-122.304;2022-07-17T09:32:40;23.10;46.40
49793;DHT22;35690;37.536;-122.304;2022-07-17T09:35:10;23.20;46.20
49793;DHT22;35690;37.536;-122.304;2022-07-17T09:37:37;23.10;46.30
49793;DHT22;35690;37.536;-122.304;2022-07-17T09:40:14;23.00;46.50
49793;DHT22;35690;37.536;-122.304;2022-07-17T09:43:01;23.10;46.40
49793;DHT22;35690;37.536;-122.304;2022-07-17T09:45:27;23.00;46.50
49793;DHT22;35690;37.536;-122.304;2022-07-17T09:47:55;23.00;46.40
49793;DHT22;35690;37.536;-122.304;2022-07-17T09:50:23;22.90;46.60
49793;DHT22;35690;37.536;-122.304;2022-07-17T09:52:53;22.90;46.60
49793;DHT22;35690;37.536;-122.304;2022-07-17T09:55:31;22.90;46.70
49793;DHT22;35690;37.536;-122.304;2022-07-17T09:57:59;22.80;46.80
49793;DHT22;35690;37.536;-122.304;2022-07-17T10:00:29;22.90;46.60
49793;DHT22;35690;37.536;-122.304;2022-07-17T10:02:57;22.90;46.70
49793;DHT22;35690;37.536;-122.304;2022-07-17T10:05:24;22.90;46.90
49793;DHT22;35690;37.536;-122.304;2022-07-17T10:07:51;22.80;46.90
49793;DHT22;35690;37.536;-122.304;2022-07-17T10:10:18;22.90;46.90
49793;DHT22;35690;37.536;-122.304;2022-07-17T10:12:48;22.80;47.10
49793;DHT22;35690;37.536;-122.304;2022-07-17T10:15:15;22.80;47.00
49793;DHT22;35690;37.536;-122.304;2022-07-17T10:17:42;22.90;47.00
49793;DHT22;35690;37.536;-122.304;2022-07-17T10:20:09;22.90;46.90
49793;DHT22;35690;37.536;-122.304;2022-07-17T10:22:46;22.90;47.00
49793;DHT22;35690;37.536;-122.304;2022-07-17T10:25:14;22.70;47.00
49793;DHT22;35690;37.536;-122.304;2022-07-17T10:27:55;22.80;47.20
49793;DHT22;35690;37.536;-122.304;2022-07-17T10:30:27;22.70;47.10
49793;DHT22;35690;37.536;-122.304;2022-07-17T10:32:56;22.70;47.30
49793;DHT22;35690;37.536;-122.304;2022-07-17T10:35:25;22.70;47.40
49793;DHT22;35690;37.536;-122.304;2022-07-17T10:37:53;22.70;47.30
49793;DHT22;35690;37.536;-122.304;2022-07-17T10:40:26;22.70;47.30
49793;DHT22;35690;37.536;-122.304;2022-07-17T10:43:05;22.60;47.40
49793;DHT22;35690;37.536;-122.304;2022-07-17T10:45:41;22.60;47.40
49793;DHT22;35690;37.536;-122.304;2022-07-17T10:50:43;22.50;47.60
49793;DHT22;35690;37.536;-122.304;2022-07-17T10:53:28;22.60;47.50
49793;DHT22;35690;37.536;-122.304;2022-07-17T10:55:56;22.50;47.60
49793;DHT22;35690;37.536;-122.304;2022-07-17T10:58:28;22.50;47.60
49793;DHT22;35690;37.536;-122.304;2022-07-17T11:01:15;22.40;47.80
49793;DHT22;35690;37.536;-122.304;2022-07-17T11:03:53;22.40;47.70
49793;DHT22;35690;37.536;-122.304;2022-07-17T11:06:23;22.50;47.70
49793;DHT22;35690;37.536;-122.304;2022-07-17T11:08:58;22.50;47.80
49793;DHT22;35690;37.536;-122.304;2022-07-17T11:11:41;22.40;47.70
49793;DHT22;35690;37.536;-122.304;2022-07-17T11:14:21;22.30;47.90
49793;DHT22;35690;37.536;-122.304;2022-07-17T11:17:02;22.30;48.00
49793;DHT22;35690;37.536;-122.304;2022-07-17T11:19:34;22.50;47.80
49793;DHT22;35690;37.536;-122.304;2022-07-17T11:22:03;22.50;47.80
49793;DHT22;35690;37.536;-122.304;2022-07-17T11:24:44;22.40;48.40
49793;DHT22;35690;37.536;-122.304;2022-07-17T11:27:18;22.40;47.80
49793;DHT22;35690;37.536;-122.304;2022-07-17T11:29:44;22.30;48.20
49793;DHT22;35690;37.536;-122.304;2022-07-17T11:32:10;22.30;48.10
49793;DHT22;35690;37.536;-122.304;2022-07-17T11:34:37;22.30;48.30
49793;DHT22;35690;37.536;-122.304;2022-07-17T11:37:05;22.20;48.20
49793;DHT22;35690;37.536;-122.304;2022-07-17T11:39:44;22.30;48.10
49793;DHT22;35690;37.536;-122.304;2022-07-17T11:42:19;22.30;48.30
49793;DHT22;35690;37.536;-122.304;2022-07-17T11:44:48;22.20;48.20
49793;DHT22;35690;37.536;-122.304;2022-07-17T11:47:21;22.30;48.30
49793;DHT22;35690;37.536;-122.304;2022-07-17T11:49:47;22.30;48.40
49793;DHT22;35690;37.536;-122.304;2022-07-17T11:52:19;22.20;48.30
49793;DHT22;35690;37.536;-122.304;2022-07-17T11:54:53;22.20;48.20
49793;DHT22;35690;37.536;-122.304;2022-07-17T11:57:21;22.20;48.40
49793;DHT22;35690;37.536;-122.304;2022-07-17T11:59:49;22.20;48.30
49793;DHT22;35690;37.536;-122.304;2022-07-17T12:02:19;22.20;48.40
49793;DHT22;35690;37.536;-122.304;2022-07-17T12:07:19;22.10;48.50
49793;DHT22;35690;37.536;-122.304;2022-07-17T12:09:45;22.20;48.40
49793;DHT22;35690;37.536;-122.304;2022-07-17T12:12:26;22.10;48.30
49793;DHT22;35690;37.536;-122.304;2022-07-17T12:14:57;22.10;48.30
49793;DHT22;35690;37.536;-122.304;2022-07-17T12:17:36;22.10;48.50
49793;DHT22;35690;37.536;-122.304;2022-07-17T12:20:04;22.10;48.70
49793;DHT22;35690;37.536;-122.304;2022-07-17T12:22:41;22.00;48.70
49793;DHT22;35690;37.536;-122.304;2022-07-17T12:25:08;22.10;48.70
49793;DHT22;35690;37.536;-122.304;2022-07-17T12:27:34;22.00;48.70
49793;DHT22;35690;37.536;-122.304;2022-07-17T12:30:00;22.10;48.70
49793;DHT22;35690;37.536;-122.304;2022-07-17T12:32:27;22.10;48.70
49793;DHT22;35690;37.536;-122.304;2022-07-17T12:34:53;22.00;48.80
49793;DHT22;35690;37.536;-122.304;2022-07-17T12:37:21;22.00;48.80
49793;DHT22;35690;37.536;-122.304;2022-07-17T12:39:49;22.00;48.70
49793;DHT22;35690;37.536;-122.304;2022-07-17T12:42:16;22.00;48.70
49793;DHT22;35690;37.536;-122.304;2022-07-17T12:44:43;22.00;48.70
49793;DHT22;35690;37.536;-122.304;2022-07-17T12:47:10;22.00;48.90
49793;DHT22;35690;37.536;-122.304;2022-07-17T12:49:36;22.00;48.90
49793;DHT22;35690;37.536;-122.304;2022-07-17T12:52:03;21.90;48.80
49793;DHT22;35690;37.536;-122.304;2022-07-17T12:54:29;22.00;48.80
49793;DHT22;35690;37.536;-122.304;2022-07-17T12:56:57;21.90;49.00
49793;DHT22;35690;37.536;-122.304;2022-07-17T12:59:24;21.90;49.00
49793;DHT22;35690;37.536;-122.304;2022-07-17T13:01:50;21.90;49.00
49793;DHT22;35690;37.536;-122.304;2022-07-17T13:04:17;21.90;48.80
49793;DHT22;35690;37.536;-122.304;2022-07-17T13:06:47;21.90;49.00
49793;DHT22;35690;37.536;-122.304;2022-07-17T13:09:14;21.90;49.00
49793;DHT22;35690;37.536;-122.304;2022-07-17T13:11:43;21.80;49.10
49793;DHT22;35690;37.536;-122.304;2022-07-17T13:14:10;21.80;49.40
49793;DHT22;35690;37.536;-122.304;2022-07-17T13:16:40;21.80;49.00
49793;DHT22;35690;37.536;-122.304;2022-07-17T13:19:08;21.80;49.10
49793;DHT22;35690;37.536;-122.304;2022-07-17T13:21:34;21.80;49.20
49793;DHT22;35690;37.536;-122.304;2022-07-17T13:24:01;21.80;49.10
49793;DHT22;35690;37.536;-122.304;2022-07-17T13:26:29;21.70;49.20
49793;DHT22;35690;37.536;-122.304;2022-07-17T13:28:55;21.70;49.20
49793;DHT22;35690;37.536;-122.304;2022-07-17T13:31:22;21.70;49.20
49793;DHT22;35690;37.536;-122.304;2022-07-17T13:33:48;21.70;49.30
49793;DHT22;35690;37.536;-122.304;2022-07-17T13:36:15;21.80;49.60
49793;DHT22;35690;37.536;-122.304;2022-07-17T13:38:41;21.70;49.40
49793;DHT22;35690;37.536;-122.304;2022-07-17T13:41:08;21.70;49.50
49793;DHT22;35690;37.536;-122.304;2022-07-17T13:43:34;21.70;49.40
49793;DHT22;35690;37.536;-122.304;2022-07-17T13:46:00;21.70;49.30
49793;DHT22;35690;37.536;-122.304;2022-07-17T13:48:27;21.70;49.40
49793;DHT22;35690;37.536;-122.304;2022-07-17T13:50:53;21.70;49.30
49793;DHT22;35690;37.536;-122.304;2022-07-17T13:53:20;21.80;49.50
49793;DHT22;35690;37.536;-122.304;2022-07-17T13:55:46;21.60;49.60
49793;DHT22;35690;37.536;-122.304;2022-07-17T13:58:12;21.50;49.50
49793;DHT22;35690;37.536;-122.304;2022-07-17T14:00:40;21.70;49.80
49793;DHT22;35690;37.536;-122.304;2022-07-17T14:03:06;21.70;49.60
49793;DHT22;35690;37.536;-122.304;2022-07-17T14:05:33;21.60;49.40
49793;DHT22;35690;37.536;-122.304;2022-07-17T14:07:59;21.70;49.60
49793;DHT22;35690;37.536;-122.304;2022-07-17T14:10:26;21.80;49.50
49793;DHT22;35690;37.536;-122.304;2022-07-17T14:12:52;21.60;49.50
49793;DHT22;35690;37.536;-122.304;2022-07-17T14:15:19;21.70;49.50
49793;DHT22;35690;37.536;-122.304;2022-07-17T14:17:45;21.80;49.30
49793;DHT22;35690;37.536;-122.304;2022-07-17T14:20:12;21.70;49.40
49793;DHT22;35690;37.536;-122.304;2022-07-17T14:22:38;21.80;49.20
49793;DHT22;35690;37.536;-122.304;2022-07-17T14:25:05;21.80;49.10
49793;DHT22;35690;37.536;-122.304;2022-07-17T14:27:31;21.80;49.30
49793;DHT22;35690;37.536;-122.304;2022-07-17T14:29:58;21.80;49.20
49793;DHT22;35690;37.536;-122.304;2022-07-17T14:32:24;21.80;49.10
49793;DHT22;35690;37.536;-122.304;2022-07-17T14:34:51;21.90;49.20
49793;DHT22;35690;37.536;-122.304;2022-07-17T14:37:17;21.80;49.00
49793;DHT22;35690;37.536;-122.304;2022-07-17T14:39:44;21.80;49.00
49793;DHT22;35690;37.536;-122.304;2022-07-17T14:42:11;21.90;49.10
49793;DHT22;35690;37.536;-122.304;2022-07-17T14:44:38;21.80;49.20
49793;DHT22;35690;37.536;-122.304;2022-07-17T14:47:05;21.90;49.10
49793;DHT22;35690;37.536;-122.304;2022-07-17T14:49:33;21.90;49.30
49793;DHT22;35690;37.536;-122.304;2022-07-17T14:51:59;22.00;49.00
49793;DHT22;35690;37.536;-122.304;2022-07-17T14:54:26;22.00;49.10
49793;DHT22;35690;37.536;-122.304;2022-07-17T14:56:53;21.90;49.10
49793;DHT22;35690;37.536;-122.304;2022-07-17T14:59:19;21.90;49.10
49793;DHT22;35690;37.536;-122.304;2022-07-17T15:01:46;22.00;49.10